Time;durP1;ratioP1;P1;durP2;ratioP2;P2;SDS_P1;SDS_P2;PMS_P1;PMS_P2;Temp;Humidity;BMP_temperature;BMP_pressure;BME280_temperature;BME280_humidity;BME280_pressure;Samples;Min_cycle;Max_cycle;Signal;HPM_P1;HPM_P2
2023/03/02 00:02:18;;;;;;;;;105.67;86.67;;;;;-0.10;89.20;100167.94;6284905;20;3674224;-58
2023/03/02 00:04:54;;;;;;;;;99.00;72.67;;;;;-0.11;88.64;100167.94;6284498;20;3670061;-56
2023/03/02 00:07:31;;;;;;;;;101.33;76.67;;;;;0.01;87.58;100167.81;6281306;20;3678437;-58
2023/03/02 00:10:01;;;;;;;;;94.67;72.33;;;;;-0.10;87.62;100172.34;6315712;20;2899421;-57
2023/03/02 00:12:33;;;;;;;;;100.67;76.00;;;;;-0.06;87.63;100158.19;6316438;20;3665920;-57
2023/03/02 00:15:03;;;;;;;;;103.33;76.67;;;;;-0.20;88.80;100154.84;6285822;20;3675730;-57
2023/03/02 00:17:32;;;;;;;;;99.67;78.67;;;;;-0.24;89.41;100156.63;6282306;20;3655492;-57
2023/03/02 00:20:11;;;;;;;;;94.33;69.67;;;;;-0.23;87.93;100161.91;6317589;20;3655513;-59
2023/03/02 00:22:45;;;;;;;;;95.00;71.00;;;;;-0.06;88.03;100158.19;6315097;20;3646177;-56
2023/03/02 00:25:17;;;;;;;;;92.67;66.00;;;;;0.10;86.64;100158.91;6313953;20;3660661;-58
2023/03/02 00:27:46;;;;;;;;;92.67;70.33;;;;;-0.12;86.26;100153.00;6317950;20;3658587;-58
2023/03/02 00:30:16;;;;;;;;;90.33;65.33;;;;;-0.35;87.11;100151.44;6316317;20;3650348;-57
2023/03/02 00:32:46;;;;;;;;;96.67;68.00;;;;;-0.55;87.65;100149.03;6316010;20;3658701;-58
2023/03/02 00:35:16;;;;;;;;;87.67;65.67;;;;;-0.29;87.38;100154.06;6316221;20;3660783;-58
2023/03/02 00:37:46;;;;;;;;;87.00;66.33;;;;;-0.64;88.36;100142.94;6316869;20;3657540;-59
2023/03/02 00:40:16;;;;;;;;;97.00;71.33;;;;;-0.49;87.54;100141.03;6316078;20;3665873;-58
2023/03/02 00:42:45;;;;;;;;;94.67;71.00;;;;;-0.72;89.54;100141.22;6318312;20;3658629;-58
2023/03/02 00:45:15;;;;;;;;;93.33;70.33;;;;;-0.50;89.32;100146.31;6316466;20;3656547;-58
2023/03/02 00:47:45;;;;;;;;;92.67;69.00;;;;;-0.61;89.24;100140.28;6312692;20;3659666;-55
2023/03/02 00:50:14;;;;;;;;;99.33;73.33;;;;;-0.36;88.06;100144.44;6314199;20;3680507;-58
2023/03/02 00:52:44;;;;;;;;;96.00;67.33;;;;;-0.63;88.29;100134.13;6281871;20;3654465;-58
2023/03/02 00:55:13;;;;;;;;;95.00;67.33;;;;;-0.95;90.22;100127.34;6317059;20;3646139;-59
2023/03/02 00:57:43;;;;;;;;;84.33;65.33;;;;;-0.83;90.65;100122.00;6314102;20;3646120;-58
2023/03/02 01:00:13;;;;;;;;;94.33;69.00;;;;;-0.74;90.00;100123.69;6317147;20;3668428;-58
2023/03/02 01:02:43;;;;;;;;;84.67;64.67;;;;;-0.72;89.67;100120.13;6315785;20;3639890;-57
2023/03/02 01:05:13;;;;;;;;;94.00;67.00;;;;;-0.50;89.65;100123.47;6317447;20;3661765;-58
2023/03/02 01:07:43;;;;;;;;;89.33;69.67;;;;;-0.85;89.56;100105.31;6316098;20;3632595;-58
2023/03/02 01:10:13;;;;;;;;;93.33;67.00;;;;;-0.62;89.35;100109.53;6317028;20;3662163;-57
2023/03/02 01:12:43;;;;;;;;;88.00;66.33;;;;;-1.04;89.55;100117.78;6315665;20;3635821;-58
2023/03/02 01:15:12;;;;;;;;;85.50;64.50;;;;;-0.98;89.76;100111.56;6317874;20;2893454;-58
2023/03/02 01:17:42;;;;;;;;;78.50;61.50;;;;;-1.00;89.89;100108.06;6280142;20;2874443;-58
2023/03/02 01:20:13;;;;;;;;;84.33;62.67;;;;;-1.20;89.86;100095.94;6282352;20;2889911;-57
2023/03/02 01:22:43;;;;;;;;;79.00;62.00;;;;;-1.46;90.61;100087.34;6315393;20;2881580;-57
2023/03/02 01:25:13;;;;;;;;;87.00;66.67;;;;;-1.40;90.72;100092.56;6282988;20;2897354;-58
2023/03/02 01:27:43;;;;;;;;;89.00;65.67;;;;;-1.42;90.71;100089.06;6316020;20;3651419;-57
2023/03/02 01:30:13;;;;;;;;;78.67;60.00;;;;;-1.37;90.46;100082.91;6314314;20;2892009;-58
2023/03/02 01:32:43;;;;;;;;;86.00;63.33;;;;;-1.37;90.22;100087.25;6316094;20;3651401;-56
2023/03/02 01:35:12;;;;;;;;;83.50;61.50;;;;;-1.39;91.38;100089.06;6314718;20;2892110;-58
2023/03/02 01:37:41;;;;;;;;;74.50;56.50;;;;;-1.34;90.99;100082.00;6283520;20;2871142;-57
2023/03/02 01:40:13;;;;;;;;;87.00;64.33;;;;;-1.28;90.47;100076.69;6283192;20;3649271;-58
2023/03/02 01:42:57;;;;;;;;;83.00;64.00;;;;;-1.21;90.28;100067.84;6316949;20;2879588;-57
2023/03/02 01:45:55;;;;;;;;;85.33;63.33;;;;;-1.01;89.73;100072.94;6313325;20;2904499;-57
2023/03/02 01:48:46;;;;;;;;;92.00;66.67;;;;;-1.15;89.75;100073.06;6315375;20;3645433;-56
2023/03/02 01:51:21;;;;;;;;;90.67;64.33;;;;;-1.34;89.40;100066.19;6310828;20;3655493;-56
2023/03/02 01:53:56;;;;;;;;;73.50;62.00;;;;;-1.31;90.23;100053.00;6309196;20;2500275;-58
2023/03/02 01:56:38;;;;;;;;;84.67;64.00;;;;;-1.38;89.77;100059.19;6281216;20;2891948;-57
2023/03/02 01:59:19;;;;;;;;;88.67;65.00;;;;;-1.38;90.00;100053.94;6311303;20;3649224;-55
2023/03/02 02:01:55;;;;;;;;;78.00;60.00;;;;;-1.42;89.79;100046.91;6313624;20;2876319;-56
2023/03/02 02:04:28;;;;;;;;;87.00;61.67;;;;;-1.53;89.41;100046.13;6280393;20;3663803;-57
2023/03/02 02:07:05;;;;;;;;;79.67;55.33;;;;;-1.40;89.71;100040.75;6313237;20;3652344;-54
2023/03/02 02:09:46;;;;;;;;;83.67;62.33;;;;;-1.40;89.23;100039.88;6313101;20;2887889;-58
2023/03/02 02:12:21;;;;;;;;;72.50;58.50;;;;;-1.45;90.05;100046.94;6309462;20;2500391;-56
2023/03/02 02:14:50;;;;;;;;;81.50;62.50;;;;;-1.28;90.41;100036.31;6284573;20;2897225;-58
2023/03/02 02:17:19;;;;;;;;;76.00;60.00;;;;;-1.27;89.91;100041.53;6281255;20;2879475;-55
2023/03/02 02:20:18;;;;;;;;;85.33;64.00;;;;;-1.15;90.16;100035.31;6281293;20;3644011;-57
2023/03/02 02:23:50;;;;;;;;;83.33;60.33;;;;;-1.30;90.30;100031.03;6311376;20;2906709;-56
2023/03/02 02:26:46;;;;;;;;;78.00;59.00;;;;;-1.20;90.10;100030.06;6315836;20;2865951;-57
2023/03/02 02:29:47;;;;;;;;;80.67;62.33;;;;;-1.14;89.71;100032.66;6281514;20;2891014;-56
2023/03/02 02:32:25;;;;;;;;;81.33;61.67;;;;;-1.21;89.72;100036.25;6312200;20;2886822;-56
2023/03/02 02:35:23;;;;;;;;;74.50;58.00;;;;;-1.15;89.41;100030.91;6310770;20;2870074;-57
2023/03/02 02:37:57;;;;;;;;;72.50;54.50;;;;;-1.12;89.08;100020.34;6281135;20;2876373;-56
2023/03/02 02:40:56;;;;;;;;;79.00;57.50;;;;;-1.26;89.04;100024.88;6275889;20;2500746;-57
2023/03/02 02:43:24;;;;;;;;;74.00;57.00;;;;;-1.02;89.06;100025.53;6283179;20;2497167;-58
2023/03/02 02:45:56;;;;;;;;;71.00;53.00;;;;;-1.07;88.64;100037.88;6279074;20;2500315;-57
2023/03/02 02:48:29;;;;;;;;;79.00;56.50;;;;;-0.99;88.81;100031.66;6283170;20;2894149;-58
2023/03/02 02:50:59;;;;;;;;;71.50;55.00;;;;;-1.00;88.40;100023.75;6273227;20;2500307;-57
2023/03/02 02:53:58;;;;;;;;;83.00;62.33;;;;;-1.12;89.23;100025.63;6280939;20;2881585;-57
2023/03/02 02:56:33;;;;;;;;;85.00;63.67;;;;;-1.12;89.23;100030.88;6311976;20;2892997;-56
2023/03/02 02:59:30;;;;;;;;;88.00;66.67;;;;;-1.21;90.10;100028.34;6310210;20;2895191;-56
2023/03/02 03:01:59;;;;;;;;;78.00;61.00;;;;;-1.13;89.77;100034.41;6307724;20;2500269;-57
2023/03/02 03:04:31;;;;;;;;;85.67;62.67;;;;;-1.04;89.21;100033.44;6278728;20;3658688;-58
2023/03/02 03:07:06;;;;;;;;;84.33;58.33;;;;;-1.46;89.61;100025.00;6310172;20;3656495;-58
2023/03/02 03:09:34;;;;;;;;;76.50;58.00;;;;;-1.42;88.99;100031.13;6308960;20;2875336;-57
2023/03/02 03:12:22;;;;;;;;;75.50;57.00;;;;;-1.78;89.49;100028.72;6278314;20;2894060;-58
2023/03/02 03:14:52;;;;;;;;;79.00;57.00;;;;;-1.87;88.95;100022.63;6282096;20;2896219;-55
2023/03/02 03:17:21;;;;;;;;;83.00;63.00;;;;;-1.93;89.73;100023.56;6313492;20;2883739;-57
2023/03/02 03:19:51;;;;;;;;;87.33;62.67;;;;;-2.11;90.09;100019.25;6281701;20;2907629;-57
2023/03/02 03:22:19;;;;;;;;;80.50;62.00;;;;;-2.17;89.97;100019.28;6317491;20;2890923;-57
2023/03/02 03:24:48;;;;;;;;;80.50;61.00;;;;;-1.86;89.60;100008.63;6285449;20;2888847;-56
2023/03/02 03:27:17;;;;;;;;;86.00;65.00;;;;;-1.68;89.21;100019.03;6285550;20;2899327;-56
2023/03/02 03:29:47;;;;;;;;;90.33;70.33;;;;;-1.77;89.48;100019.06;6285074;20;3644023;-55
2023/03/02 03:32:18;;;;;;;;;94.67;68.33;;;;;-1.46;88.37;100018.88;6318330;20;3664829;-57
2023/03/02 03:34:48;;;;;;;;;97.67;71.33;;;;;-1.23;87.47;100016.94;6316770;20;3660675;-57
2023/03/02 03:37:19;;;;;;;;;87.00;65.33;;;;;-1.20;87.70;100027.44;6317951;20;3650268;-55
2023/03/02 03:39:49;;;;;;;;;85.67;62.67;;;;;-1.52;88.86;100024.19;6317386;20;2898555;-58
2023/03/02 03:42:18;;;;;;;;;105.67;76.67;;;;;-1.70;90.64;100027.81;6318112;20;3671090;-57
2023/03/02 03:44:48;;;;;;;;;120.33;92.67;;;;;-1.64;90.95;100030.41;6283134;20;3713865;-57
2023/03/02 03:47:18;;;;;;;;;157.33;126.00;;;;;-1.70;90.36;100026.06;6286274;20;3714840;-58
2023/03/02 03:49:47;;;;;;;;;127.67;104.00;;;;;-1.52;89.84;100029.47;6285137;20;3722101;-57
2023/03/02 03:52:15;;;;;;;;;78.00;39.50;;;;;-1.64;90.50;100030.41;6283888;20;2897554;-58
2023/03/02 03:54:45;;;;;;;;;98.67;68.33;;;;;-1.79;91.23;100032.25;6285841;20;3673201;-58
2023/03/02 03:57:15;;;;;;;;;114.67;85.67;;;;;-1.65;91.09;100029.53;6318606;20;3685772;-57
2023/03/02 03:59:44;;;;;;;;;107.33;82.00;;;;;-1.55;90.83;100033.84;6278554;20;3681535;-56
2023/03/02 04:02:14;;;;;;;;;98.67;73.33;;;;;-1.45;89.46;100031.16;6285395;20;3668066;-58
2023/03/02 04:04:52;;;;;;;;;94.33;68.33;;;;;-1.47;89.42;100038.22;6316167;20;3654533;-58
2023/03/02 04:07:22;;;;;;;;;97.33;71.33;;;;;-1.37;89.25;100038.13;6316047;20;3654527;-57
2023/03/02 04:10:02;;;;;;;;;79.00;59.33;;;;;-1.47;89.07;100023.28;6317158;20;3641979;-59
2023/03/02 04:12:36;;;;;;;;;79.00;61.33;;;;;-1.32;87.08;100035.44;6315756;20;2881571;-58
2023/03/02 04:15:11;;;;;;;;;85.00;64.67;;;;;-1.28;87.27;100033.66;6312924;20;2903598;-59
2023/03/02 04:17:39;;;;;;;;;80.50;60.50;;;;;-1.27;88.08;100032.78;6314389;20;2500362;-57
2023/03/02 04:20:15;;;;;;;;;93.67;66.00;;;;;-1.19;86.10;100029.19;6285430;20;3661732;-57
2023/03/02 04:22:49;;;;;;;;;90.67;68.00;;;;;-1.41;86.31;100036.38;6282359;20;3646133;-59
2023/03/02 04:25:23;;;;;;;;;95.00;70.33;;;;;-1.42;86.50;100039.91;6316495;20;3658583;-58
2023/03/02 04:27:54;;;;;;;;;104.67;77.33;;;;;-1.85;87.03;100031.41;6317727;20;3675323;-57
2023/03/02 04:30:26;;;;;;;;;108.00;75.00;;;;;-1.83;87.75;100030.50;6315350;20;3678452;-57
2023/03/02 04:32:56;;;;;;;;;155.00;122.75;;;;;-1.75;87.89;100033.09;6284105;20;4508988;-57
2023/03/02 04:35:27;;;;;;;;;164.25;124.75;;;;;-2.01;87.76;100031.47;6316040;20;4500269;-57
2023/03/02 04:37:57;;;;;;;;;151.67;113.00;;;;;-2.06;89.05;100033.25;6286167;20;3720041;-58
2023/03/02 04:40:28;;;;;;;;;117.50;99.33;;;;;-2.14;89.88;100029.78;6278816;20;4446148;-58
2023/03/02 04:42:57;;;;;;;;;111.33;90.67;;;;;-1.79;89.01;100028.72;6313996;20;3697130;-58
2023/03/02 04:45:27;;;;;;;;;111.33;87.00;;;;;-1.92;88.67;100024.41;6284857;20;3701405;-58
2023/03/02 04:47:57;;;;;;;;;106.33;87.33;;;;;-2.09;88.43;100030.66;6285785;20;3688818;-57
2023/03/02 04:50:26;;;;;;;;;100.67;73.33;;;;;-1.97;88.63;100027.09;6280444;20;3676311;-57
2023/03/02 04:52:56;;;;;;;;;104.33;77.00;;;;;-2.30;89.42;100036.88;6315874;20;3668056;-56
2023/03/02 04:55:26;;;;;;;;;92.00;67.00;;;;;-2.22;89.97;100029.81;6316915;20;3656551;-57
2023/03/02 04:57:57;;;;;;;;;89.33;68.67;;;;;-2.08;89.64;100034.16;6316999;20;3650332;-57
2023/03/02 05:00:27;;;;;;;;;85.00;63.67;;;;;-1.99;89.32;100029.72;6316521;20;3656502;-57
2023/03/02 05:02:57;;;;;;;;;90.67;70.00;;;;;-1.91;89.29;100021.78;6315314;20;3649290;-58
2023/03/02 05:05:27;;;;;;;;;97.33;69.33;;;;;-1.96;89.48;100034.09;6317356;20;3666941;-58
2023/03/02 05:07:58;;;;;;;;;91.67;71.67;;;;;-1.92;88.91;100029.69;6313441;20;2894139;-57
2023/03/02 05:10:28;;;;;;;;;101.00;71.67;;;;;-1.77;88.72;100030.47;6314620;20;3664855;-59
2023/03/02 05:13:01;;;;;;;;;90.67;68.33;;;;;-1.75;88.15;100030.47;6316132;20;2892134;-59
2023/03/02 05:15:38;;;;;;;;;91.33;70.00;;;;;-1.90;88.63;100030.56;6316538;20;2888892;-58
2023/03/02 05:18:11;;;;;;;;;89.67;67.33;;;;;-2.13;88.14;100030.66;6315540;20;2896154;-57
2023/03/02 05:20:40;;;;;;;;;88.67;63.33;;;;;-2.02;88.22;100019.22;6316634;20;3650248;-58
2023/03/02 05:23:23;;;;;;;;;81.00;62.33;;;;;-2.12;88.21;100022.78;6314234;20;2890045;-58
2023/03/02 05:25:55;;;;;;;;;93.67;72.67;;;;;-1.80;87.56;100027.00;6315940;20;3640960;-58
2023/03/02 05:28:26;;;;;;;;;102.67;78.33;;;;;-2.04;87.44;100036.75;6317162;20;3659706;-58
2023/03/02 05:30:56;;;;;;;;;104.00;74.33;;;;;-2.01;87.03;100031.47;6313096;20;3687769;-58
2023/03/02 05:33:25;;;;;;;;;98.67;76.67;;;;;-1.89;87.51;100041.09;6283500;20;2896564;-58
2023/03/02 05:35:55;;;;;;;;;96.67;69.67;;;;;-1.86;88.09;100037.56;6313568;20;3660707;-58
2023/03/02 05:38:26;;;;;;;;;90.33;67.00;;;;;-1.86;88.26;100037.56;6316882;20;2899378;-58
2023/03/02 05:40:56;;;;;;;;;88.00;63.67;;;;;-1.84;87.63;100043.69;6313819;20;2902479;-57
2023/03/02 05:43:25;;;;;;;;;91.00;65.67;;;;;-1.63;87.25;100040.94;6314436;20;3650359;-57
2023/03/02 05:45:59;;;;;;;;;88.67;67.67;;;;;-1.68;87.71;100034.81;6313064;20;3634744;-58
2023/03/02 05:48:30;;;;;;;;;80.00;57.00;;;;;-1.09;84.53;100048.44;6315167;20;2895122;-58
2023/03/02 05:50:58;;;;;;;;;79.00;62.00;;;;;-1.00;83.72;100050.09;6307095;20;2500258;-58
2023/03/02 05:53:28;;;;;;;;;91.67;70.33;;;;;-1.08;83.18;100047.53;6280220;20;3651723;-57
2023/03/02 05:55:57;;;;;;;;;85.00;65.33;;;;;-0.84;82.84;100056.09;6315429;20;3644045;-57
2023/03/02 05:58:26;;;;;;;;;80.00;61.00;;;;;-0.52;82.00;100054.03;6314461;20;2886728;-58
2023/03/02 06:00:56;;;;;;;;;82.00;59.00;;;;;-0.37;80.41;100063.56;6282694;20;2898340;-58
2023/03/02 06:03:25;;;;;;;;;94.33;65.67;;;;;-0.13;80.94;100056.22;6315377;20;3656717;-58
2023/03/02 06:05:55;;;;;;;;;87.00;65.67;;;;;1.82;74.52;100061.94;6314807;20;3655588;-58
2023/03/02 06:08:24;;;;;;;;;83.00;67.00;;;;;3.84;63.71;100065.97;6315902;20;2880580;-60
2023/03/02 06:10:56;;;;;;;;;92.33;71.67;;;;;2.24;65.78;100064.63;6281155;20;3640978;-60
2023/03/02 06:13:27;;;;;;;;;97.00;67.67;;;;;2.08;69.80;100068.47;6315455;20;3662974;-60
2023/03/02 06:15:56;;;;;;;;;85.67;65.67;;;;;4.71;59.96;100075.78;6314448;20;3637784;-60
2023/03/02 06:18:26;;;;;;;;;95.00;72.00;;;;;6.19;53.53;100080.53;6314286;20;3654560;-60
2023/03/02 06:20:56;;;;;;;;;81.33;64.00;;;;;6.40;52.28;100080.63;6311749;20;3620082;-60
2023/03/02 06:23:25;;;;;;;;;85.33;63.33;;;;;6.22;52.84;100083.06;6309326;20;3639985;-60
2023/03/02 06:25:56;;;;;;;;;67.33;50.33;;;;;7.25;49.62;100079.88;6310328;20;2882745;-60
2023/03/02 06:28:26;;;;;;;;;66.67;50.00;;;;;7.17;49.25;100090.00;6314153;20;3646174;-58
2023/03/02 06:30:58;;;;;;;;;73.00;55.00;;;;;8.29;45.57;100089.63;6310487;20;3642027;-58
2023/03/02 06:33:29;;;;;;;;;69.33;51.67;;;;;8.38;44.47;100102.59;6313050;20;3644039;-57
2023/03/02 06:35:58;;;;;;;;;78.00;60.00;;;;;7.85;45.88;100092.50;6311309;20;3632547;-58
2023/03/02 06:38:28;;;;;;;;;87.33;70.00;;;;;9.80;42.17;100096.63;6313055;20;3671191;-58
2023/03/02 06:40:59;;;;;;;;;83.67;61.33;;;;;10.17;41.16;100100.03;6278704;20;3659608;-58
2023/03/02 06:43:27;;;;;;;;;76.00;56.00;;;;;9.37;40.37;100094.31;6315667;20;2760779;-58
2023/03/02 06:45:59;;;;;;;;;58.00;45.00;;;;;9.82;39.63;100092.91;6279920;20;2876565;-58
2023/03/02 06:48:29;;;;;;;;;48.33;39.00;;;;;9.89;38.52;100101.47;6316418;20;2893176;-58
2023/03/02 06:50:57;;;;;;;;;54.00;43.00;;;;;10.69;38.24;100100.81;6313434;20;2853400;-58
2023/03/02 06:53:27;;;;;;;;;42.67;36.33;;;;;11.39;36.06;100114.72;6276598;20;2859815;-58
2023/03/02 06:55:57;;;;;;;;;50.00;38.67;;;;;11.20;35.45;100106.84;6317340;20;3613848;-58
2023/03/02 06:58:26;;;;;;;;;48.33;41.33;;;;;10.71;36.93;100106.06;6319348;20;2862327;-59
2023/03/02 07:00:56;;;;;;;;;50.50;40.50;;;;;10.72;36.80;100102.44;6315887;20;2848394;-58
2023/03/02 07:03:24;;;;;;;;;47.00;40.50;;;;;11.94;36.32;100113.31;6286383;20;2851413;-58
2023/03/02 07:05:53;;;;;;;;;40.00;34.50;;;;;12.54;32.90;100114.16;6287673;20;2853495;-59
2023/03/02 07:08:23;;;;;;;;;37.33;33.00;;;;;13.01;33.04;100118.34;6287257;20;2864954;-58
2023/03/02 07:10:51;;;;;;;;;38.33;32.33;;;;;12.85;31.04;100119.31;6320270;20;3602357;-59
2023/03/02 07:13:21;;;;;;;;;39.33;34.00;;;;;13.22;30.71;100116.94;6284326;20;2861816;-59
2023/03/02 07:15:50;;;;;;;;;43.33;34.67;;;;;14.33;29.51;100120.28;6315139;20;3616910;-59
2023/03/02 07:18:20;;;;;;;;;142.25;126.50;;;;;10.41;34.84;100109.50;6317679;20;4490835;-58
2023/03/02 07:20:50;;;;;;;;;58.67;44.33;;;;;7.59;41.38;100099.84;6283412;20;3600285;-58
2023/03/02 07:23:19;;;;;;;;;39.00;36.00;;;;;7.16;43.76;100093.63;6316583;20;2860727;-59
2023/03/02 07:25:48;;;;;;;;;42.33;33.00;;;;;6.49;45.94;100082.94;6319089;20;3617990;-58
2023/03/02 07:28:17;;;;;;;;;35.67;31.67;;;;;6.54;46.73;100088.97;6285675;20;2863970;-58
2023/03/02 07:30:46;;;;;;;;;43.00;36.00;;;;;6.49;48.11;100089.16;6318417;20;3603468;-58
2023/03/02 07:33:15;;;;;;;;;40.00;36.50;;;;;6.26;48.94;100094.47;6283634;20;2861870;-57
2023/03/02 07:35:44;;;;;;;;;38.00;35.50;;;;;6.21;49.02;100099.13;6285779;20;2851789;-57
2023/03/02 07:38:13;;;;;;;;;43.33;38.67;;;;;6.59;48.71;100092.34;6285954;20;2859653;-58
2023/03/02 07:40:43;;;;;;;;;40.67;31.67;;;;;6.92;48.74;100089.25;6316998;20;3628481;-56
2023/03/02 07:43:12;;;;;;;;;41.00;35.00;;;;;6.98;49.63;100091.72;6285539;20;2851490;-56
2023/03/02 07:45:41;;;;;;;;;42.33;35.33;;;;;7.13;46.89;100091.06;6288476;20;3605474;-57
2023/03/02 07:48:10;;;;;;;;;25.00;22.00;;;;;6.86;45.43;100084.19;6316903;20;2848274;-58
2023/03/02 07:50:39;;;;;;;;;24.50;22.00;;;;;7.51;43.88;100093.94;6284572;20;2838911;-58
2023/03/02 07:53:08;;;;;;;;;20.00;14.33;;;;;6.99;43.28;100080.09;6286383;20;3546286;-59
2023/03/02 07:55:41;;;;;;;;;20.00;16.00;;;;;7.17;43.54;100092.69;6319067;20;2807639;-59
2023/03/02 07:58:09;;;;;;;;;21.00;16.33;;;;;6.87;42.65;100081.44;6283363;20;3559671;-56
2023/03/02 08:00:38;;;;;;;;;18.67;14.00;;;;;7.32;44.12;100083.19;6284238;20;3549233;-57
2023/03/02 08:03:09;;;;;;;;;20.00;20.00;;;;;7.46;42.38;100072.78;6316062;20;2498214;-53
2023/03/02 08:05:37;;;;;;;;;21.50;18.00;;;;;7.43;43.24;100088.06;6287685;20;2826467;-57
2023/03/02 08:08:05;;;;;;;;;13.67;13.00;;;;;7.15;44.05;100083.84;6287516;20;2793021;-59
2023/03/02 08:10:34;;;;;;;;;21.00;18.50;;;;;7.53;44.78;100084.06;6317198;20;2831612;-59
2023/03/02 08:13:04;;;;;;;;;18.20;12.60;;;;;7.72;43.19;100085.97;6309379;20;2804605;-59
2023/03/02 08:15:32;;;;;;;;;22.00;18.50;;;;;7.42;43.46;100095.19;6284834;20;2824263;-59
2023/03/02 08:18:01;;;;;;;;;22.33;17.00;;;;;8.23;42.87;100092.59;6283525;20;3568005;-59
2023/03/02 08:20:29;;;;;;;;;15.50;13.50;;;;;7.26;43.67;100089.63;6283006;20;2803522;-59
2023/03/02 08:22:57;;;;;;;;;18.33;15.33;;;;;7.10;44.75;100085.84;6280131;20;3532337;-57
2023/03/02 08:25:25;;;;;;;;;21.50;16.50;;;;;7.44;43.79;100093.31;6317292;20;2816992;-59
2023/03/02 08:27:53;;;;;;;;;18.00;13.00;;;;;7.70;44.26;100084.19;6288965;20;2491978;-55
2023/03/02 08:30:21;;;;;;;;;22.00;20.50;;;;;7.84;43.19;100086.25;6285358;20;2500311;-57
2023/03/02 08:32:49;;;;;;;;;20.50;14.50;;;;;7.88;43.47;100089.69;6285428;20;2498222;-59
2023/03/02 08:35:17;;;;;;;;;23.00;22.00;;;;;8.03;44.82;100088.13;6284978;20;2832617;-59
2023/03/02 08:37:45;;;;;;;;;21.50;19.00;;;;;7.86;44.35;100084.41;6281805;20;2500307;-55
2023/03/02 08:40:13;;;;;;;;;25.50;20.00;;;;;7.81;44.53;100074.84;6282905;20;2500799;-56
2023/03/02 08:42:42;;;;;;;;;25.00;19.50;;;;;7.83;44.84;100086.34;6283748;20;2829476;-59
2023/03/02 08:45:10;;;;;;;;;25.00;21.00;;;;;8.43;44.16;100087.22;6282888;20;2498273;-59
2023/03/02 08:47:38;;;;;;;;;16.50;16.00;;;;;8.18;44.25;100084.75;6284697;20;2500306;-59
2023/03/02 08:50:07;;;;;;;;;30.67;22.33;;;;;8.24;44.13;100079.16;6282964;20;3598225;-59
2023/03/02 08:52:36;;;;;;;;;23.00;17.00;;;;;8.34;44.30;100075.09;6284399;20;2834726;-59
2023/03/02 08:55:06;;;;;;;;;19.67;18.67;;;;;8.67;44.84;100079.00;6286765;20;3564874;-58
2023/03/02 08:57:35;;;;;;;;;28.00;25.00;;;;;9.00;44.82;100080.06;6316152;20;2846150;-59
2023/03/02 09:00:08;;;;;;;;;12.00;10.00;;;;;8.69;44.37;100085.13;6285585;20;2791010;-57
2023/03/02 09:02:36;;;;;;;;;20.67;17.00;;;;;8.96;45.13;100078.47;6284894;20;3568053;-57
2023/03/02 09:05:05;;;;;;;;;21.00;19.00;;;;;9.16;45.65;100079.28;6282892;20;2833642;-56
2023/03/02 09:07:33;;;;;;;;;26.50;23.00;;;;;9.12;45.50;100075.03;6284761;20;2836742;-56
2023/03/02 09:10:02;;;;;;;;;25.00;24.50;;;;;9.01;45.80;100073.75;6278339;20;2846137;-58
2023/03/02 09:12:30;;;;;;;;;16.50;14.00;;;;;9.02;45.60;100072.78;6285651;20;2796128;-58
2023/03/02 09:14:59;;;;;;;;;29.50;28.00;;;;;9.16;46.08;100068.56;6284541;20;2857580;-57
2023/03/02 09:17:27;;;;;;;;;21.00;16.33;;;;;9.18;45.95;100072.03;6284909;20;3546155;-57
2023/03/02 09:19:56;;;;;;;;;29.50;23.50;;;;;8.88;46.17;100066.38;6315503;20;2856658;-57
2023/03/02 09:22:25;;;;;;;;;21.00;13.00;;;;;9.74;45.04;100065.63;6281960;20;3539873;-56
2023/03/02 09:24:53;;;;;;;;;31.00;26.50;;;;;10.10;45.18;100068.16;6313557;20;2858616;-58
2023/03/02 09:27:22;;;;;;;;;25.50;24.00;;;;;9.57;45.52;100063.78;6284350;20;2837886;-57
2023/03/02 09:29:50;;;;;;;;;25.50;23.00;;;;;9.34;45.52;100073.00;6281928;20;2500315;-58
2023/03/02 09:32:17;;;;;;;;;20.00;18.50;;;;;9.22;47.56;100068.28;6284621;20;2500365;-57
2023/03/02 09:34:47;;;;;;;;;32.33;25.67;;;;;9.70;47.71;100064.03;6283919;20;3601323;-57
2023/03/02 09:37:17;;;;;;;;;37.00;26.33;;;;;9.77;47.36;100062.78;6315516;20;3626378;-58
2023/03/02 09:39:45;;;;;;;;;31.33;27.00;;;;;9.91;46.40;100063.88;6316845;20;3584828;-57
2023/03/02 09:42:53;;;;;;;;;32.00;27.00;;;;;9.94;46.26;100050.28;6283072;20;2852483;-58
2023/03/02 09:45:51;;;;;;;;;29.33;24.00;;;;;9.71;47.27;100057.72;6283341;20;3585729;-57
2023/03/02 09:49:11;;;;;;;;;22.00;22.00;;;;;10.54;45.52;100062.22;6313356;20;2483732;-56
2023/03/02 09:52:45;;;;;;;;;28.00;26.50;;;;;10.72;44.70;100063.03;6281978;20;2829470;-57
2023/03/02 09:55:21;;;;;;;;;32.33;30.00;;;;;10.67;45.70;100057.03;6279991;20;2859717;-57
2023/03/02 09:57:51;;;;;;;;;37.00;31.33;;;;;10.41;45.04;100050.44;6310934;20;3612789;-57
2023/03/02 10:00:39;;;;;;;;;30.67;27.67;;;;;10.20;46.74;100052.44;6310831;20;3594102;-58
2023/03/02 10:03:37;;;;;;;;;31.00;26.50;;;;;9.86;46.34;100043.50;6280560;20;2860728;-58
2023/03/02 10:06:05;;;;;;;;;32.67;30.33;;;;;10.17;48.05;100039.19;6285148;20;3604470;-57
2023/03/02 10:08:41;;;;;;;;;30.00;26.00;;;;;10.27;47.49;100034.19;6279047;20;2494044;-58
2023/03/02 10:11:59;;;;;;;;;30.00;26.50;;;;;10.66;46.70;100041.88;6280123;20;2850382;-57
2023/03/02 10:14:48;;;;;;;;;32.00;23.50;;;;;10.47;47.00;100038.47;6280010;20;2855654;-58
2023/03/02 10:17:54;;;;;;;;;59.67;47.67;;;;;10.82;47.15;100039.22;6282661;20;3608649;-56
2023/03/02 10:20:50;;;;;;;;;29.00;26.00;;;;;11.26;46.37;100030.38;6280106;20;3599280;-57
2023/03/02 10:24:00;;;;;;;;;23.67;21.33;;;;;11.17;45.64;100034.47;6316279;20;3585780;-57
2023/03/02 10:26:47;;;;;;;;;72.33;55.00;;;;;11.12;46.21;100024.94;6276451;20;3624225;-57
2023/03/02 10:29:45;;;;;;;;;20.00;20.00;;;;;10.90;46.56;100030.69;6280477;20;3572113;-57
2023/03/02 10:32:21;;;;;;;;;27.00;23.00;;;;;11.40;45.90;100030.44;6280967;20;2844461;-57
2023/03/02 10:34:52;;;;;;;;;39.50;34.00;;;;;11.19;47.16;100035.25;6282338;20;2871109;-57
2023/03/02 10:37:27;;;;;;;;;19.00;16.00;;;;;11.26;46.19;100026.81;6280809;20;2487793;-57
2023/03/02 10:39:56;;;;;;;;;18.50;17.50;;;;;11.83;46.32;100021.59;6277475;20;2494053;-57
2023/03/02 10:42:36;;;;;;;;;22.00;20.00;;;;;11.53;46.71;100024.31;6278422;20;2500376;-56
2023/03/02 10:45:32;;;;;;;;;25.50;21.50;;;;;11.64;46.52;100017.34;6276640;20;2835801;-58
2023/03/02 10:48:11;;;;;;;;;23.50;20.50;;;;;11.98;46.30;100015.31;6283885;20;2834708;-56
2023/03/02 10:50:43;;;;;;;;;19.33;14.67;;;;;12.03;46.60;100017.69;6279178;20;3535769;-58
2023/03/02 10:53:18;;;;;;;;;40.00;34.00;;;;;11.93;46.39;100006.66;6279022;20;2858727;-57
2023/03/02 10:55:51;;;;;;;;;14.00;11.00;;;;;12.00;46.94;100002.59;6311482;20;2783658;-58
2023/03/02 10:58:31;;;;;;;;;27.33;25.00;;;;;12.07;46.39;100009.31;6283787;20;3602416;-58
2023/03/02 11:01:17;;;;;;;;;32.00;24.00;;;;;11.66;46.83;100009.16;6281757;20;2857588;-59
2023/03/02 11:04:01;;;;;;;;;28.00;24.00;;;;;12.14;46.36;100003.56;6317257;20;3584704;-54
2023/03/02 11:06:30;;;;;;;;;27.00;23.50;;;;;11.83;46.78;100005.44;6280252;20;2838835;-56
2023/03/02 11:09:05;;;;;;;;;34.67;32.00;;;;;11.82;47.50;100001.00;6284677;20;3585742;-60
2023/03/02 11:11:35;;;;;;;;;28.50;23.00;;;;;11.57;47.25;99994.44;6275553;20;2840968;-57
2023/03/02 11:14:16;;;;;;;;;27.33;27.33;;;;;11.72;49.05;99994.50;6279275;20;2853520;-59
2023/03/02 11:16:46;;;;;;;;;36.33;31.67;;;;;12.27;48.27;99983.00;6313683;20;3593995;-56
2023/03/02 11:19:34;;;;;;;;;15.00;8.00;;;;;12.12;47.17;99989.34;6277774;20;2760707;-56
2023/03/02 11:22:31;;;;;;;;;28.50;28.50;;;;;12.14;47.97;99988.28;6281115;20;2854446;-57
2023/03/02 11:25:11;;;;;;;;;32.33;26.67;;;;;12.09;47.60;99979.63;6279813;20;2853521;-57